sensor_id;sensor_type;location;lat;lon;timestamp;temperature;humidity
77693;SHT31;66984;47.404;18.836;2024-01-15T00:00:09;0.54;71.34
77693;SHT31;66984;47.404;18.836;2024-01-15T00:01:12;0.58;71.32
77693;SHT31;66984;47.404;18.836;2024-01-15T00:02:15;0.57;71.26
77693;SHT31;66984;47.404;18.836;2024-01-15T00:03:18;0.58;71.51
77693;SHT31;66984;47.404;18.836;2024-01-15T00:04:21;0.60;71.54
77693;SHT31;66984;47.404;18.836;2024-01-15T00:05:24;0.58;71.47
77693;SHT31;66984;47.404;18.836;2024-01-15T00:06:33;0.58;71.56
77693;SHT31;66984;47.404;18.836;2024-01-15T00:07:36;0.61;71.55
77693;SHT31;66984;47.404;18.836;2024-01-15T00:08:39;0.62;71.54
77693;SHT31;66984;47.404;18.836;2024-01-15T00:09:41;0.64;71.38
77693;SHT31;66984;47.404;18.836;2024-01-15T00:10:44;0.64;71.20
77693;SHT31;66984;47.404;18.836;2024-01-15T00:11:47;0.64;71.11
77693;SHT31;66984;47.404;18.836;2024-01-15T00:12:50;0.68;71.09
77693;SHT31;66984;47.404;18.836;2024-01-15T00:13:53;0.65;71.12
77693;SHT31;66984;47.404;18.836;2024-01-15T00:14:56;0.69;71.10
77693;SHT31;66984;47.404;18.836;2024-01-15T00:15:58;0.71;70.85
77693;SHT31;66984;47.404;18.836;2024-01-15T00:17:01;0.68;70.79
77693;SHT31;66984;47.404;18.836;2024-01-15T00:18:04;0.71;70.81
77693;SHT31;66984;47.404;18.836;2024-01-15T00:19:08;0.69;70.83
77693;SHT31;66984;47.404;18.836;2024-01-15T00:20:11;0.69;70.92
77693;SHT31;66984;47.404;18.836;2024-01-15T00:21:14;0.68;71.00
77693;SHT31;66984;47.404;18.836;2024-01-15T00:22:17;0.69;71.06
77693;SHT31;66984;47.404;18.836;2024-01-15T00:23:19;0.66;70.97
77693;SHT31;66984;47.404;18.836;2024-01-15T00:24:23;0.66;70.90
77693;SHT31;66984;47.404;18.836;2024-01-15T00:25:25;0.68;70.92
77693;SHT31;66984;47.404;18.836;2024-01-15T00:26:28;0.66;71.04
77693;SHT31;66984;47.404;18.836;2024-01-15T00:27:31;0.68;70.94
77693;SHT31;66984;47.404;18.836;2024-01-15T00:28:34;0.68;70.59
77693;SHT31;66984;47.404;18.836;2024-01-15T00:29:37;0.69;70.42
77693;SHT31;66984;47.404;18.836;2024-01-15T00:30:39;0.71;70.32
77693;SHT31;66984;47.404;18.836;2024-01-15T00:31:42;0.69;70.29
77693;SHT31;66984;47.404;18.836;2024-01-15T00:32:45;0.68;70.42
77693;SHT31;66984;47.404;18.836;2024-01-15T00:33:48;0.68;70.84
77693;SHT31;66984;47.404;18.836;2024-01-15T00:34:51;0.65;70.96
77693;SHT31;66984;47.404;18.836;2024-01-15T00:35:54;0.65;70.91
77693;SHT31;66984;47.404;18.836;2024-01-15T00:36:57;0.66;70.68
77693;SHT31;66984;47.404;18.836;2024-01-15T00:38:00;0.62;70.54
77693;SHT31;66984;47.404;18.836;2024-01-15T00:39:02;0.61;70.54
77693;SHT31;66984;47.404;18.836;2024-01-15T00:40:08;0.53;70.40
77693;SHT31;66984;47.404;18.836;2024-01-15T00:41:10;0.48;70.62
77693;SHT31;66984;47.404;18.836;2024-01-15T00:42:13;0.47;70.74
77693;SHT31;66984;47.404;18.836;2024-01-15T00:43:16;0.48;70.89
77693;SHT31;66984;47.404;18.836;2024-01-15T00:44:21;0.44;71.00
77693;SHT31;66984;47.404;18.836;2024-01-15T00:45:24;0.38;70.91
77693;SHT31;66984;47.404;18.836;2024-01-15T00:46:27;0.34;70.96
77693;SHT31;66984;47.404;18.836;2024-01-15T00:47:30;0.30;71.07
77693;SHT31;66984;47.404;18.836;2024-01-15T00:48:33;0.27;71.20
77693;SHT31;66984;47.404;18.836;2024-01-15T00:49:36;0.25;71.49
77693;SHT31;66984;47.404;18.836;2024-01-15T00:50:39;0.28;71.73
77693;SHT31;66984;47.404;18.836;2024-01-15T00:51:42;0.28;71.76
77693;SHT31;66984;47.404;18.836;2024-01-15T00:52:45;0.24;71.94
77693;SHT31;66984;47.404;18.836;2024-01-15T00:53:48;0.25;71.89
77693;SHT31;66984;47.404;18.836;2024-01-15T00:54:51;0.25;71.81
77693;SHT31;66984;47.404;18.836;2024-01-15T00:55:54;0.24;71.87
77693;SHT31;66984;47.404;18.836;2024-01-15T00:56:57;0.25;71.90
77693;SHT31;66984;47.404;18.836;2024-01-15T00:58:00;0.23;71.92
77693;SHT31;66984;47.404;18.836;2024-01-15T00:59:02;0.23;72.03
77693;SHT31;66984;47.404;18.836;2024-01-15T01:00:06;0.24;72.50
77693;SHT31;66984;47.404;18.836;2024-01-15T01:01:09;0.24;72.45
77693;SHT31;66984;47.404;18.836;2024-01-15T01:02:12;0.27;72.41
77693;SHT31;66984;47.404;18.836;2024-01-15T01:03:15;0.28;72.36
77693;SHT31;66984;47.404;18.836;2024-01-15T01:04:18;0.28;72.16
77693;SHT31;66984;47.404;18.836;2024-01-15T01:05:21;0.30;72.09
77693;SHT31;66984;47.404;18.836;2024-01-15T01:06:24;0.33;71.93
77693;SHT31;66984;47.404;18.836;2024-01-15T01:07:27;0.31;71.95
77693;SHT31;66984;47.404;18.836;2024-01-15T01:08:30;0.34;72.05
77693;SHT31;66984;47.404;18.836;2024-01-15T01:09:33;0.34;72.28
77693;SHT31;66984;47.404;18.836;2024-01-15T01:10:36;0.36;72.28
77693;SHT31;66984;47.404;18.836;2024-01-15T01:11:39;0.36;72.20
77693;SHT31;66984;47.404;18.836;2024-01-15T01:12:42;0.38;72.13
77693;SHT31;66984;47.404;18.836;2024-01-15T01:13:45;0.40;72.30
77693;SHT31;66984;47.404;18.836;2024-01-15T01:14:48;0.36;72.33
77693;SHT31;66984;47.404;18.836;2024-01-15T01:15:51;0.37;72.34
77693;SHT31;66984;47.404;18.836;2024-01-15T01:16:53;0.37;72.25
77693;SHT31;66984;47.404;18.836;2024-01-15T01:17:56;0.36;72.26
77693;SHT31;66984;47.404;18.836;2024-01-15T01:18:59;0.37;72.23
77693;SHT31;66984;47.404;18.836;2024-01-15T01:20:03;0.38;72.13
77693;SHT31;66984;47.404;18.836;2024-01-15T01:21:07;0.38;72.12
77693;SHT31;66984;47.404;18.836;2024-01-15T01:22:10;0.37;71.86
77693;SHT31;66984;47.404;18.836;2024-01-15T01:23:13;0.36;71.78
77693;SHT31;66984;47.404;18.836;2024-01-15T01:24:16;0.37;71.73
77693;SHT31;66984;47.404;18.836;2024-01-15T01:25:18;0.37;71.54
77693;SHT31;66984;47.404;18.836;2024-01-15T01:26:21;0.34;71.54
77693;SHT31;66984;47.404;18.836;2024-01-15T01:27:25;0.33;71.64
77693;SHT31;66984;47.404;18.836;2024-01-15T01:28:28;0.30;71.54
77693;SHT31;66984;47.404;18.836;2024-01-15T01:29:31;0.31;71.55
77693;SHT31;66984;47.404;18.836;2024-01-15T01:30:34;0.31;71.39
77693;SHT31;66984;47.404;18.836;2024-01-15T01:31:42;0.28;71.35
77693;SHT31;66984;47.404;18.836;2024-01-15T01:32:45;0.27;71.35
77693;SHT31;66984;47.404;18.836;2024-01-15T01:33:48;0.27;71.42
77693;SHT31;66984;47.404;18.836;2024-01-15T01:34:51;0.24;71.51
77693;SHT31;66984;47.404;18.836;2024-01-15T01:35:54;0.21;71.32
77693;SHT31;66984;47.404;18.836;2024-01-15T01:36:57;0.16;71.14
77693;SHT31;66984;47.404;18.836;2024-01-15T01:37:59;0.17;71.00
77693;SHT31;66984;47.404;18.836;2024-01-15T01:39:02;0.14;71.14
77693;SHT31;66984;47.404;18.836;2024-01-15T01:40:05;0.11;71.45
77693;SHT31;66984;47.404;18.836;2024-01-15T01:41:09;0.03;70.86
77693;SHT31;66984;47.404;18.836;2024-01-15T01:42:12;-0.03;70.55
77693;SHT31;66984;47.404;18.836;2024-01-15T01:43:15;-0.04;70.91
77693;SHT31;66984;47.404;18.836;2024-01-15T01:44:18;-0.04;71.05
77693;SHT31;66984;47.404;18.836;2024-01-15T01:45:20;-0.14;70.95
77693;SHT31;66984;47.404;18.836;2024-01-15T01:46:24;-0.24;70.82
77693;SHT31;66984;47.404;18.836;2024-01-15T01:47:28;-0.24;71.22
77693;SHT31;66984;47.404;18.836;2024-01-15T01:48:31;-0.25;72.14
77693;SHT31;66984;47.404;18.836;2024-01-15T01:49:35;-0.29;72.21
77693;SHT31;66984;47.404;18.836;2024-01-15T01:50:39;-0.35;71.74
77693;SHT31;66984;47.404;18.836;2024-01-15T01:51:42;-0.45;71.30
77693;SHT31;66984;47.404;18.836;2024-01-15T01:52:45;-0.45;71.32
77693;SHT31;66984;47.404;18.836;2024-01-15T01:53:48;-0.46;71.73
77693;SHT31;66984;47.404;18.836;2024-01-15T01:54:51;-0.49;72.83
77693;SHT31;66984;47.404;18.836;2024-01-15T01:55:56;-0.45;73.09
77693;SHT31;66984;47.404;18.836;2024-01-15T01:57:00;-0.42;73.00
77693;SHT31;66984;47.404;18.836;2024-01-15T01:58:05;-0.42;72.80
77693;SHT31;66984;47.404;18.836;2024-01-15T01:59:10;-0.42;72.87
77693;SHT31;66984;47.404;18.836;2024-01-15T02:00:13;-0.44;72.97
77693;SHT31;66984;47.404;18.836;2024-01-15T02:01:18;-0.45;72.48
77693;SHT31;66984;47.404;18.836;2024-01-15T02:02:21;-0.48;72.35
77693;SHT31;66984;47.404;18.836;2024-01-15T02:03:27;-0.49;72.56
77693;SHT31;66984;47.404;18.836;2024-01-15T02:04:31;-0.48;72.58
77693;SHT31;66984;47.404;18.836;2024-01-15T02:05:35;-0.48;72.57
77693;SHT31;66984;47.404;18.836;2024-01-15T02:06:38;-0.46;72.41
77693;SHT31;66984;47.404;18.836;2024-01-15T02:07:41;-0.45;72.21
77693;SHT31;66984;47.404;18.836;2024-01-15T02:08:44;-0.51;72.13
77693;SHT31;66984;47.404;18.836;2024-01-15T02:09:47;-0.55;72.38
77693;SHT31;66984;47.404;18.836;2024-01-15T02:10:50;-0.56;72.71
77693;SHT31;66984;47.404;18.836;2024-01-15T02:11:53;-0.56;72.84
77693;SHT31;66984;47.404;18.836;2024-01-15T02:12:56;-0.52;72.73
77693;SHT31;66984;47.404;18.836;2024-01-15T02:13:58;-0.52;72.80
77693;SHT31;66984;47.404;18.836;2024-01-15T02:15:01;-0.52;72.89
77693;SHT31;66984;47.404;18.836;2024-01-15T02:16:05;-0.51;72.79
77693;SHT31;66984;47.404;18.836;2024-01-15T02:17:07;-0.51;72.79
77693;SHT31;66984;47.404;18.836;2024-01-15T02:18:10;-0.48;72.75
77693;SHT31;66984;47.404;18.836;2024-01-15T02:19:17;-0.46;72.60
77693;SHT31;66984;47.404;18.836;2024-01-15T02:20:20;-0.49;72.46
77693;SHT31;66984;47.404;18.836;2024-01-15T02:21:23;-0.49;72.23
77693;SHT31;66984;47.404;18.836;2024-01-15T02:22:26;-0.49;72.23
77693;SHT31;66984;47.404;18.836;2024-01-15T02:23:28;-0.49;72.42
77693;SHT31;66984;47.404;18.836;2024-01-15T02:24:31;-0.48;72.43
77693;SHT31;66984;47.404;18.836;2024-01-15T02:25:35;-0.49;72.25
77693;SHT31;66984;47.404;18.836;2024-01-15T02:26:38;-0.51;72.18
77693;SHT31;66984;47.404;18.836;2024-01-15T02:27:42;-0.52;72.33
77693;SHT31;66984;47.404;18.836;2024-01-15T02:28:47;-0.51;72.37
77693;SHT31;66984;47.404;18.836;2024-01-15T02:29:50;-0.49;72.41
77693;SHT31;66984;47.404;18.836;2024-01-15T02:30:53;-0.54;72.38
77693;SHT31;66984;47.404;18.836;2024-01-15T02:31:56;-0.54;72.33
77693;SHT31;66984;47.404;18.836;2024-01-15T02:32:59;-0.55;72.06
77693;SHT31;66984;47.404;18.836;2024-01-15T02:34:02;-0.55;72.00
77693;SHT31;66984;47.404;18.836;2024-01-15T02:35:05;-0.58;72.18
77693;SHT31;66984;47.404;18.836;2024-01-15T02:36:08;-0.58;72.59
77693;SHT31;66984;47.404;18.836;2024-01-15T02:37:11;-0.56;72.99
77693;SHT31;66984;47.404;18.836;2024-01-15T02:38:14;-0.55;73.08
77693;SHT31;66984;47.404;18.836;2024-01-15T02:39:17;-0.58;72.92
77693;SHT31;66984;47.404;18.836;2024-01-15T02:40:20;-0.54;72.55
77693;SHT31;66984;47.404;18.836;2024-01-15T02:41:23;-0.52;72.10
77693;SHT31;66984;47.404;18.836;2024-01-15T02:42:26;-0.56;72.06
77693;SHT31;66984;47.404;18.836;2024-01-15T02:43:29;-0.59;71.78
77693;SHT31;66984;47.404;18.836;2024-01-15T02:44:32;-0.58;72.07
77693;SHT31;66984;47.404;18.836;2024-01-15T02:45:35;-0.61;72.27
77693;SHT31;66984;47.404;18.836;2024-01-15T02:46:38;-0.58;72.35
77693;SHT31;66984;47.404;18.836;2024-01-15T02:47:40;-0.58;72.27
77693;SHT31;66984;47.404;18.836;2024-01-15T02:48:43;-0.59;72.20
77693;SHT31;66984;47.404;18.836;2024-01-15T02:49:46;-0.56;72.03
77693;SHT31;66984;47.404;18.836;2024-01-15T02:50:49;-0.52;71.82
77693;SHT31;66984;47.404;18.836;2024-01-15T02:51:52;-0.56;71.65
77693;SHT31;66984;47.404;18.836;2024-01-15T02:52:55;-0.56;71.57
77693;SHT31;66984;47.404;18.836;2024-01-15T02:53:58;-0.61;71.73
77693;SHT31;66984;47.404;18.836;2024-01-15T02:55:01;-0.59;72.09
77693;SHT31;66984;47.404;18.836;2024-01-15T02:56:04;-0.59;72.05
77693;SHT31;66984;47.404;18.836;2024-01-15T02:57:06;-0.63;71.93
77693;SHT31;66984;47.404;18.836;2024-01-15T02:58:10;-0.59;72.02
77693;SHT31;66984;47.404;18.836;2024-01-15T02:59:13;-0.61;71.81
77693;SHT31;66984;47.404;18.836;2024-01-15T03:00:16;-0.62;71.71
77693;SHT31;66984;47.404;18.836;2024-01-15T03:01:19;-0.61;71.69
77693;SHT31;66984;47.404;18.836;2024-01-15T03:02:23;-0.62;71.71
77693;SHT31;66984;47.404;18.836;2024-01-15T03:03:25;-0.62;71.87
77693;SHT31;66984;47.404;18.836;2024-01-15T03:04:28;-0.63;71.86
77693;SHT31;66984;47.404;18.836;2024-01-15T03:05:31;-0.65;71.89
77693;SHT31;66984;47.404;18.836;2024-01-15T03:06:34;-0.65;71.88
77693;SHT31;66984;47.404;18.836;2024-01-15T03:07:37;-0.63;71.81
77693;SHT31;66984;47.404;18.836;2024-01-15T03:08:40;-0.62;71.60
77693;SHT31;66984;47.404;18.836;2024-01-15T03:09:43;-0.65;71.25
77693;SHT31;66984;47.404;18.836;2024-01-15T03:10:46;-0.65;71.12
77693;SHT31;66984;47.404;18.836;2024-01-15T03:11:49;-0.65;70.85
77693;SHT31;66984;47.404;18.836;2024-01-15T03:12:52;-0.65;70.71
77693;SHT31;66984;47.404;18.836;2024-01-15T03:13:55;-0.69;70.59
77693;SHT31;66984;47.404;18.836;2024-01-15T03:14:58;-0.69;70.54
77693;SHT31;66984;47.404;18.836;2024-01-15T03:16:01;-0.72;70.42
77693;SHT31;66984;47.404;18.836;2024-01-15T03:17:04;-0.73;70.25
77693;SHT31;66984;47.404;18.836;2024-01-15T03:18:07;-0.73;70.24
77693;SHT31;66984;47.404;18.836;2024-01-15T03:19:10;-0.72;70.80
77693;SHT31;66984;47.404;18.836;2024-01-15T03:20:13;-0.75;70.80
77693;SHT31;66984;47.404;18.836;2024-01-15T03:21:16;-0.76;70.61
77693;SHT31;66984;47.404;18.836;2024-01-15T03:22:19;-0.82;70.25
77693;SHT31;66984;47.404;18.836;2024-01-15T03:23:21;-0.82;70.42
77693;SHT31;66984;47.404;18.836;2024-01-15T03:24:24;-0.77;70.41
77693;SHT31;66984;47.404;18.836;2024-01-15T03:25:27;-0.82;70.43
77693;SHT31;66984;47.404;18.836;2024-01-15T03:26:30;-0.86;70.40
77693;SHT31;66984;47.404;18.836;2024-01-15T03:27:33;-0.89;70.52
77693;SHT31;66984;47.404;18.836;2024-01-15T03:28:36;-0.93;70.69
77693;SHT31;66984;47.404;18.836;2024-01-15T03:29:41;-0.92;70.78
77693;SHT31;66984;47.404;18.836;2024-01-15T03:30:43;-0.92;70.73
77693;SHT31;66984;47.404;18.836;2024-01-15T03:31:46;-0.93;70.62
77693;SHT31;66984;47.404;18.836;2024-01-15T03:32:49;-0.94;71.01
77693;SHT31;66984;47.404;18.836;2024-01-15T03:33:52;-0.96;70.94
77693;SHT31;66984;47.404;18.836;2024-01-15T03:34:55;-0.97;70.80
77693;SHT31;66984;47.404;18.836;2024-01-15T03:35:59;-0.97;70.67
77693;SHT31;66984;47.404;18.836;2024-01-15T03:37:02;-0.96;70.60
77693;SHT31;66984;47.404;18.836;2024-01-15T03:38:04;-0.99;70.55
77693;SHT31;66984;47.404;18.836;2024-01-15T03:39:07;-1.03;70.50
77693;SHT31;66984;47.404;18.836;2024-01-15T03:40:11;-1.05;70.58
77693;SHT31;66984;47.404;18.836;2024-01-15T03:41:14;-1.08;70.59
77693;SHT31;66984;47.404;18.836;2024-01-15T03:42:16;-1.05;70.53
77693;SHT31;66984;47.404;18.836;2024-01-15T03:43:19;-1.08;70.38
77693;SHT31;66984;47.404;18.836;2024-01-15T03:44:22;-1.07;70.34
77693;SHT31;66984;47.404;18.836;2024-01-15T03:45:25;-1.10;70.14
77693;SHT31;66984;47.404;18.836;2024-01-15T03:46:28;-1.07;70.25
77693;SHT31;66984;47.404;18.836;2024-01-15T03:47:31;-1.08;70.69
77693;SHT31;66984;47.404;18.836;2024-01-15T03:48:34;-1.11;70.68
77693;SHT31;66984;47.404;18.836;2024-01-15T03:49:37;-1.14;70.65
77693;SHT31;66984;47.404;18.836;2024-01-15T03:50:40;-1.14;70.56
77693;SHT31;66984;47.404;18.836;2024-01-15T03:51:43;-1.14;70.49
77693;SHT31;66984;47.404;18.836;2024-01-15T03:52:46;-1.17;70.20
77693;SHT31;66984;47.404;18.836;2024-01-15T03:53:49;-1.17;70.25
77693;SHT31;66984;47.404;18.836;2024-01-15T03:54:52;-1.21;70.45
77693;SHT31;66984;47.404;18.836;2024-01-15T03:55:55;-1.21;70.50
77693;SHT31;66984;47.404;18.836;2024-01-15T03:56:58;-1.25;70.13
77693;SHT31;66984;47.404;18.836;2024-01-15T03:58:01;-1.33;70.27
77693;SHT31;66984;47.404;18.836;2024-01-15T03:59:04;-1.33;70.73
77693;SHT31;66984;47.404;18.836;2024-01-15T04:00:07;-1.31;71.10
77693;SHT31;66984;47.404;18.836;2024-01-15T04:01:10;-1.34;71.30
77693;SHT31;66984;47.404;18.836;2024-01-15T04:02:14;-1.33;71.25
77693;SHT31;66984;47.404;18.836;2024-01-15T04:03:16;-1.30;71.15
77693;SHT31;66984;47.404;18.836;2024-01-15T04:04:20;-1.33;71.10
77693;SHT31;66984;47.404;18.836;2024-01-15T04:05:23;-1.28;71.01
77693;SHT31;66984;47.404;18.836;2024-01-15T04:06:26;-1.33;70.73
77693;SHT31;66984;47.404;18.836;2024-01-15T04:07:29;-1.31;70.45
77693;SHT31;66984;47.404;18.836;2024-01-15T04:08:31;-1.34;70.39
77693;SHT31;66984;47.404;18.836;2024-01-15T04:09:34;-1.34;70.47
77693;SHT31;66984;47.404;18.836;2024-01-15T04:10:37;-1.37;70.36
77693;SHT31;66984;47.404;18.836;2024-01-15T04:11:40;-1.38;70.22
77693;SHT31;66984;47.404;18.836;2024-01-15T04:12:43;-1.41;70.38
77693;SHT31;66984;47.404;18.836;2024-01-15T04:13:46;-1.42;70.68
77693;SHT31;66984;47.404;18.836;2024-01-15T04:14:48;-1.41;70.54
77693;SHT31;66984;47.404;18.836;2024-01-15T04:15:51;-1.42;70.59
77693;SHT31;66984;47.404;18.836;2024-01-15T04:16:54;-1.44;70.65
77693;SHT31;66984;47.404;18.836;2024-01-15T04:17:57;-1.42;70.62
77693;SHT31;66984;47.404;18.836;2024-01-15T04:19:00;-1.44;70.54
77693;SHT31;66984;47.404;18.836;2024-01-15T04:20:03;-1.50;71.01
77693;SHT31;66984;47.404;18.836;2024-01-15T04:21:06;-1.47;71.30
77693;SHT31;66984;47.404;18.836;2024-01-15T04:22:09;-1.48;71.18
77693;SHT31;66984;47.404;18.836;2024-01-15T04:23:12;-1.48;71.15
77693;SHT31;66984;47.404;18.836;2024-01-15T04:24:15;-1.48;71.13
77693;SHT31;66984;47.404;18.836;2024-01-15T04:25:20;-1.45;71.09
77693;SHT31;66984;47.404;18.836;2024-01-15T04:26:23;-1.44;71.21
77693;SHT31;66984;47.404;18.836;2024-01-15T04:27:26;-1.44;71.19
77693;SHT31;66984;47.404;18.836;2024-01-15T04:28:28;-1.44;71.07
77693;SHT31;66984;47.404;18.836;2024-01-15T04:29:31;-1.47;71.08
77693;SHT31;66984;47.404;18.836;2024-01-15T04:30:36;-1.42;70.98
77693;SHT31;66984;47.404;18.836;2024-01-15T04:31:39;-1.42;70.79
77693;SHT31;66984;47.404;18.836;2024-01-15T04:32:42;-1.44;70.72
77693;SHT31;66984;47.404;18.836;2024-01-15T04:33:45;-1.47;70.70
77693;SHT31;66984;47.404;18.836;2024-01-15T04:34:48;-1.50;70.89
77693;SHT31;66984;47.404;18.836;2024-01-15T04:35:51;-1.48;70.81
77693;SHT31;66984;47.404;18.836;2024-01-15T04:36:54;-1.48;70.71
77693;SHT31;66984;47.404;18.836;2024-01-15T04:37:57;-1.50;70.61
77693;SHT31;66984;47.404;18.836;2024-01-15T04:38:59;-1.52;70.76
77693;SHT31;66984;47.404;18.836;2024-01-15T04:40:02;-1.51;70.72
77693;SHT31;66984;47.404;18.836;2024-01-15T04:41:11;-1.54;71.17
77693;SHT31;66984;47.404;18.836;2024-01-15T04:42:14;-1.54;71.62
77693;SHT31;66984;47.404;18.836;2024-01-15T04:43:16;-1.54;71.27
77693;SHT31;66984;47.404;18.836;2024-01-15T04:44:19;-1.52;70.98
77693;SHT31;66984;47.404;18.836;2024-01-15T04:45:22;-1.54;70.83
77693;SHT31;66984;47.404;18.836;2024-01-15T04:46:30;-1.56;70.84
77693;SHT31;66984;47.404;18.836;2024-01-15T04:47:33;-1.54;70.43
77693;SHT31;66984;47.404;18.836;2024-01-15T04:48:36;-1.59;70.30
77693;SHT31;66984;47.404;18.836;2024-01-15T04:49:39;-1.59;70.31
77693;SHT31;66984;47.404;18.836;2024-01-15T04:50:42;-1.59;70.42
77693;SHT31;66984;47.404;18.836;2024-01-15T04:51:45;-1.63;70.60
77693;SHT31;66984;47.404;18.836;2024-01-15T04:52:49;-1.62;70.73
77693;SHT31;66984;47.404;18.836;2024-01-15T04:53:51;-1.65;70.90
77693;SHT31;66984;47.404;18.836;2024-01-15T04:54:54;-1.62;71.04
77693;SHT31;66984;47.404;18.836;2024-01-15T04:55:57;-1.61;71.11
77693;SHT31;66984;47.404;18.836;2024-01-15T04:57:00;-1.61;70.91
77693;SHT31;66984;47.404;18.836;2024-01-15T04:58:03;-1.63;71.22
77693;SHT31;66984;47.404;18.836;2024-01-15T04:59:06;-1.65;71.48
77693;SHT31;66984;47.404;18.836;2024-01-15T05:00:09;-1.62;71.41
77693;SHT31;66984;47.404;18.836;2024-01-15T05:01:12;-1.59;71.19
77693;SHT31;66984;47.404;18.836;2024-01-15T05:02:15;-1.63;71.11
77693;SHT31;66984;47.404;18.836;2024-01-15T05:03:18;-1.66;70.94
77693;SHT31;66984;47.404;18.836;2024-01-15T05:04:21;-1.65;70.74
77693;SHT31;66984;47.404;18.836;2024-01-15T05:05:24;-1.68;70.65
77693;SHT31;66984;47.404;18.836;2024-01-15T05:06:27;-1.69;70.77
77693;SHT31;66984;47.404;18.836;2024-01-15T05:07:30;-1.68;70.87
77693;SHT31;66984;47.404;18.836;2024-01-15T05:08:33;-1.66;70.61
77693;SHT31;66984;47.404;18.836;2024-01-15T05:09:36;-1.72;70.71
77693;SHT31;66984;47.404;18.836;2024-01-15T05:10:38;-1.72;70.71
77693;SHT31;66984;47.404;18.836;2024-01-15T05:11:41;-1.73;70.84
77693;SHT31;66984;47.404;18.836;2024-01-15T05:12:44;-1.73;71.11
77693;SHT31;66984;47.404;18.836;2024-01-15T05:13:47;-1.72;71.11
77693;SHT31;66984;47.404;18.836;2024-01-15T05:14:50;-1.75;71.19
77693;SHT31;66984;47.404;18.836;2024-01-15T05:15:53;-1.75;71.33
77693;SHT31;66984;47.404;18.836;2024-01-15T05:16:55;-1.71;71.28
77693;SHT31;66984;47.404;18.836;2024-01-15T05:17:58;-1.73;70.97
77693;SHT31;66984;47.404;18.836;2024-01-15T05:19:01;-1.75;70.83
77693;SHT31;66984;47.404;18.836;2024-01-15T05:20:05;-1.78;70.79
77693;SHT31;66984;47.404;18.836;2024-01-15T05:21:08;-1.78;70.86
77693;SHT31;66984;47.404;18.836;2024-01-15T05:22:11;-1.81;71.14
77693;SHT31;66984;47.404;18.836;2024-01-15T05:23:13;-1.81;71.07
77693;SHT31;66984;47.404;18.836;2024-01-15T05:24:16;-1.82;70.82
77693;SHT31;66984;47.404;18.836;2024-01-15T05:25:20;-1.86;70.66
77693;SHT31;66984;47.404;18.836;2024-01-15T05:26:22;-1.85;70.71
77693;SHT31;66984;47.404;18.836;2024-01-15T05:27:25;-1.87;70.78
77693;SHT31;66984;47.404;18.836;2024-01-15T05:28:28;-1.86;70.90
77693;SHT31;66984;47.404;18.836;2024-01-15T05:29:32;-1.89;71.04
77693;SHT31;66984;47.404;18.836;2024-01-15T05:30:34;-1.89;71.15
77693;SHT31;66984;47.404;18.836;2024-01-15T05:31:37;-1.86;71.16
77693;SHT31;66984;47.404;18.836;2024-01-15T05:32:41;-1.86;71.13
77693;SHT31;66984;47.404;18.836;2024-01-15T05:33:43;-1.89;71.18
77693;SHT31;66984;47.404;18.836;2024-01-15T05:34:46;-1.89;71.19
77693;SHT31;66984;47.404;18.836;2024-01-15T05:35:50;-1.87;71.11
77693;SHT31;66984;47.404;18.836;2024-01-15T05:36:53;-1.87;70.93
77693;SHT31;66984;47.404;18.836;2024-01-15T05:37:56;-1.87;70.96
77693;SHT31;66984;47.404;18.836;2024-01-15T05:38:58;-1.87;71.04
77693;SHT31;66984;47.404;18.836;2024-01-15T05:40:01;-1.87;71.06
77693;SHT31;66984;47.404;18.836;2024-01-15T05:41:07;-1.89;70.97
77693;SHT31;66984;47.404;18.836;2024-01-15T05:42:10;-1.92;71.05
77693;SHT31;66984;47.404;18.836;2024-01-15T05:43:13;-1.92;71.22
77693;SHT31;66984;47.404;18.836;2024-01-15T05:44:15;-1.92;71.44
77693;SHT31;66984;47.404;18.836;2024-01-15T05:45:18;-1.94;71.38
77693;SHT31;66984;47.404;18.836;2024-01-15T05:46:21;-1.92;71.17
77693;SHT31;66984;47.404;18.836;2024-01-15T05:47:24;-1.94;71.13
77693;SHT31;66984;47.404;18.836;2024-01-15T05:48:27;-1.93;71.15
77693;SHT31;66984;47.404;18.836;2024-01-15T05:49:30;-1.93;71.09
77693;SHT31;66984;47.404;18.836;2024-01-15T05:50:41;-1.92;71.69
77693;SHT31;66984;47.404;18.836;2024-01-15T05:51:44;-1.94;71.51
77693;SHT31;66984;47.404;18.836;2024-01-15T05:52:47;-1.94;71.46
77693;SHT31;66984;47.404;18.836;2024-01-15T05:53:50;-1.96;71.50
77693;SHT31;66984;47.404;18.836;2024-01-15T05:54:53;-1.96;71.48
77693;SHT31;66984;47.404;18.836;2024-01-15T05:55:56;-1.97;71.62
77693;SHT31;66984;47.404;18.836;2024-01-15T05:56:59;-1.96;71.78
77693;SHT31;66984;47.404;18.836;2024-01-15T05:58:02;-2.02;71.77
77693;SHT31;66984;47.404;18.836;2024-01-15T05:59:05;-1.99;71.88
77693;SHT31;66984;47.404;18.836;2024-01-15T06:00:08;-1.97;71.80
77693;SHT31;66984;47.404;18.836;2024-01-15T06:01:11;-1.94;71.62
77693;SHT31;66984;47.404;18.836;2024-01-15T06:02:14;-1.93;71.52
77693;SHT31;66984;47.404;18.836;2024-01-15T06:03:17;-1.94;71.56
77693;SHT31;66984;47.404;18.836;2024-01-15T06:04:20;-1.96;71.80
77693;SHT31;66984;47.404;18.836;2024-01-15T06:05:23;-1.97;71.93
77693;SHT31;66984;47.404;18.836;2024-01-15T06:06:26;-1.96;72.41
77693;SHT31;66984;47.404;18.836;2024-01-15T06:07:29;-1.96;72.77
77693;SHT31;66984;47.404;18.836;2024-01-15T06:08:32;-1.94;72.53
77693;SHT31;66984;47.404;18.836;2024-01-15T06:09:34;-1.94;72.09
77693;SHT31;66984;47.404;18.836;2024-01-15T06:10:37;-1.94;71.67
77693;SHT31;66984;47.404;18.836;2024-01-15T06:11:40;-1.96;71.62
77693;SHT31;66984;47.404;18.836;2024-01-15T06:12:43;-1.96;71.68
77693;SHT31;66984;47.404;18.836;2024-01-15T06:13:46;-1.94;71.78
77693;SHT31;66984;47.404;18.836;2024-01-15T06:14:49;-1.92;71.94
77693;SHT31;66984;47.404;18.836;2024-01-15T06:15:52;-1.94;71.81
77693;SHT31;66984;47.404;18.836;2024-01-15T06:16:55;-1.92;71.88
77693;SHT31;66984;47.404;18.836;2024-01-15T06:17:58;-1.96;71.90
77693;SHT31;66984;47.404;18.836;2024-01-15T06:19:01;-1.93;72.32
77693;SHT31;66984;47.404;18.836;2024-01-15T06:20:04;-1.92;72.35
77693;SHT31;66984;47.404;18.836;2024-01-15T06:21:08;-1.90;72.31
77693;SHT31;66984;47.404;18.836;2024-01-15T06:22:13;-1.89;72.56
77693;SHT31;66984;47.404;18.836;2024-01-15T06:23:15;-1.89;72.56
77693;SHT31;66984;47.404;18.836;2024-01-15T06:24:21;-1.85;72.63
77693;SHT31;66984;47.404;18.836;2024-01-15T06:25:24;-1.89;72.78
77693;SHT31;66984;47.404;18.836;2024-01-15T06:26:27;-1.86;72.82
77693;SHT31;66984;47.404;18.836;2024-01-15T06:27:30;-1.83;72.74
77693;SHT31;66984;47.404;18.836;2024-01-15T06:28:33;-1.83;72.76
77693;SHT31;66984;47.404;18.836;2024-01-15T06:29:37;-1.81;72.71
77693;SHT31;66984;47.404;18.836;2024-01-15T06:30:40;-1.81;72.59
77693;SHT31;66984;47.404;18.836;2024-01-15T06:31:43;-1.79;72.55
77693;SHT31;66984;47.404;18.836;2024-01-15T06:32:46;-1.78;72.74
77693;SHT31;66984;47.404;18.836;2024-01-15T06:33:49;-1.76;72.76